Time;durP1;ratioP1;P1;durP2;ratioP2;P2;SDS_P1;SDS_P2;PMS_P1;PMS_P2;Temp;Humidity;BMP_temperature;BMP_pressure;BME280_temperature;BME280_humidity;BME280_pressure;Samples;Min_cycle;Max_cycle;Signal;HPM_P1;HPM_P2
2022/02/01 00:02:29;;;;;;;8.67;7.80;;;;;;;1.68;100.00;100545.75;5070605;28;20212;-72
2022/02/01 00:05:07;;;;;;;5.30;4.80;;;;;;;1.70;100.00;100554.38;5069786;28;20201;-73
2022/02/01 00:08:01;;;;;;;6.40;4.77;;;;;;;1.70;100.00;100543.63;5070411;28;20198;-72
2022/02/01 00:13:14;;;;;;;1.60;1.50;;;;;;;1.65;100.00;100551.63;5070143;28;20205;-73
2022/02/01 00:18:46;;;;;;;4.97;4.53;;;;;;;1.64;100.00;100543.81;5070491;28;20171;-72
2022/02/01 00:35:19;;;;;;;3.67;3.37;;;;;;;1.65;100.00;100551.63;5069418;28;20439;-72
2022/02/01 00:37:59;;;;;;;4.30;3.30;;;;;;;1.65;100.00;100565.09;5062480;28;20660;-72
2022/02/01 00:40:25;;;;;;;16.83;4.40;;;;;;;1.63;100.00;100548.38;5070305;28;20185;-72
2022/02/01 00:42:50;;;;;;;5.00;3.47;;;;;;;1.59;100.00;100541.03;5070252;28;20174;-72
2022/02/01 00:45:16;;;;;;;11.30;4.33;;;;;;;1.60;100.00;100551.59;5069693;28;20182;-72
2022/02/01 00:47:43;;;;;;;3.30;3.03;;;;;;;1.59;100.00;100536.50;5069796;28;20192;-72
2022/02/01 00:50:12;;;;;;;14.30;7.63;;;;;;;1.61;100.00;100545.13;5070500;28;20171;-73
2022/02/01 00:52:38;;;;;;;5.47;4.87;;;;;;;1.62;100.00;100537.88;5069988;28;20173;-73
2022/02/01 00:55:04;;;;;;;5.33;4.73;;;;;;;1.65;100.00;100542.75;5070411;28;20178;-73
2022/02/01 00:57:29;;;;;;;6.87;5.17;;;;;;;1.65;100.00;100535.47;5069911;28;20240;-73
2022/02/01 00:59:55;;;;;;;2.60;2.43;;;;;;;1.68;100.00;100537.66;5070111;28;20212;-72
2022/02/01 01:02:20;;;;;;;7.43;3.70;;;;;;;1.66;100.00;100523.66;5069882;28;20178;-72
2022/02/01 01:04:45;;;;;;;10.93;7.37;;;;;;;1.68;100.00;100536.84;5069525;28;20170;-73
2022/02/01 01:07:11;;;;;;;3.07;2.73;;;;;;;1.66;100.00;100539.81;5069869;28;20248;-74
2022/02/01 01:09:36;;;;;;;6.37;5.43;;;;;;;1.57;100.00;100543.97;5068220;28;20253;-72
2022/02/01 01:12:02;;;;;;;6.00;3.57;;;;;;;1.55;100.00;100523.75;5069932;28;20174;-72
2022/02/01 01:17:44;;;;;;;5.53;4.43;;;;;;;1.54;100.00;100540.97;5069947;28;20244;-72
2022/02/01 01:44:22;;;;;;;1.13;1.03;;;;;;;1.53;100.00;100529.41;5073550;28;20701;-73
2022/02/01 01:54:59;;;;;;;4.17;3.20;;;;;;;1.75;100.00;100534.81;5072960;28;20696;-73
2022/02/01 01:57:24;;;;;;;7.77;4.80;;;;;;;1.81;100.00;100546.44;5072979;28;20445;-72
2022/02/01 01:59:51;;;;;;;3.03;2.73;;;;;;;1.87;100.00;100577.75;5072863;28;20261;-73
2022/02/01 02:02:16;;;;;;;5.03;3.17;;;;;;;1.90;100.00;100567.31;5073066;28;20266;-73
2022/02/01 02:04:41;;;;;;;6.33;3.77;;;;;;;1.91;100.00;100562.75;5072894;28;20258;-74
2022/02/01 02:07:07;;;;;;;3.57;2.80;;;;;;;1.93;100.00;100566.00;5073201;28;20288;-73
2022/02/01 02:09:32;;;;;;;18.23;5.03;;;;;;;1.93;100.00;100561.41;5073005;28;20604;-73
2022/02/01 02:12:14;;;;;;;1.13;0.93;;;;;;;1.94;100.00;100578.41;5073192;28;20175;-73
2022/02/01 02:14:48;;;;;;;9.13;2.70;;;;;;;1.93;100.00;100577.59;5073455;28;20179;-73
2022/02/01 02:17:13;;;;;;;1.60;1.40;;;;;;;1.96;100.00;100581.66;5072869;28;20601;-72
2022/02/01 02:19:39;;;;;;;1.97;1.87;;;;;;;1.94;100.00;100581.91;5073124;28;20206;-73
2022/02/01 02:22:06;;;;;;;2.67;2.37;;;;;;;1.94;100.00;100578.41;5073347;28;20186;-73
2022/02/01 02:24:38;;;;;;;1.07;0.73;;;;;;;1.97;100.00;100569.81;5072601;28;20273;-74
2022/02/01 02:27:04;;;;;;;1.83;1.30;;;;;;;1.99;100.00;100563.09;5072338;28;20214;-73
2022/02/01 02:29:30;;;;;;;4.13;2.17;;;;;;;2.00;100.00;100564.72;5072460;28;20189;-73
2022/02/01 02:31:56;;;;;;;1.10;1.00;;;;;;;2.01;100.00;100546.66;5072223;28;20174;-72
2022/02/01 02:34:22;;;;;;;1.87;1.57;;;;;;;2.01;100.00;100549.38;5072448;28;20171;-73
2022/02/01 02:37:06;;;;;;;2.17;1.60;;;;;;;2.00;100.00;100542.34;5070285;28;20269;-72
2022/02/01 02:42:29;;;;;;;0.80;0.80;;;;;;;1.97;100.00;100548.25;5072311;28;20223;-73
2022/02/01 02:45:05;;;;;;;1.03;1.03;;;;;;;1.93;100.00;100533.66;5072207;28;20244;-73
2022/02/01 02:47:31;;;;;;;2.73;1.93;;;;;;;1.90;100.00;100532.28;5070767;28;20202;-72
2022/02/01 02:49:57;;;;;;;4.13;1.80;;;;;;;1.88;100.00;100539.81;5072141;28;20206;-73
2022/02/01 02:52:25;;;;;;;0.40;0.40;;;;;;;1.87;100.00;100531.97;5072003;28;20284;-72
2022/02/01 02:54:50;;;;;;;0.93;0.93;;;;;;;1.84;100.00;100546.75;5071679;28;20202;-72
2022/02/01 02:57:16;;;;;;;2.67;1.10;;;;;;;1.81;100.00;100533.78;5071982;28;20234;-73
2022/02/01 02:59:41;;;;;;;3.97;0.20;;;;;;;1.81;100.00;100552.66;5072008;28;20178;-74
2022/02/01 03:02:07;;;;;;;1.80;1.30;;;;;;;1.79;100.00;100544.81;5071640;28;20210;-73
2022/02/01 03:04:35;;;;;;;0.97;0.23;;;;;;;1.78;100.00;100548.56;5071349;28;20521;-75
2022/02/01 03:07:02;;;;;;;3.63;0.73;;;;;;;1.78;100.00;100542.38;5071549;28;20202;-73
2022/02/01 03:09:28;;;;;;;4.47;0.20;;;;;;;1.76;100.00;100534.56;5071688;28;20202;-72
2022/02/01 03:11:57;;;;;;;1.23;0.30;;;;;;;1.76;100.00;100533.75;5070349;28;20835;-73
2022/02/01 03:14:39;;;;;;;1.30;1.20;;;;;;;1.73;100.00;100539.59;5071708;28;20183;-72
2022/02/01 03:19:47;;;;;;;0.47;0.47;;;;;;;1.73;100.00;100551.19;5069925;28;21020;-73
2022/02/01 03:19:52;;;;;;;5.40;1.37;;;;;;;1.72;100.00;100560.34;5071406;28;20459;-72
2022/02/01 03:22:22;;;;;;;43.43;3.63;;;;;;;1.73;100.00;100553.06;5071371;28;20939;-73
2022/02/01 03:24:48;;;;;;;7.67;0.30;;;;;;;1.73;100.00;100553.88;5071026;28;20205;-74
2022/02/01 03:27:14;;;;;;;6.43;1.33;;;;;;;1.73;100.00;100545.00;5071322;28;20507;-73
2022/02/01 03:29:39;;;;;;;1.17;1.13;;;;;;;1.73;100.00;100548.50;5071037;28;20198;-73
2022/02/01 03:32:05;;;;;;;0.30;0.30;;;;;;;1.77;100.00;100559.59;5070932;28;20182;-73
2022/02/01 03:34:31;;;;;;;0.30;0.30;;;;;;;1.81;100.00;100549.13;5071057;28;20170;-75
2022/02/01 03:36:56;;;;;;;0.63;0.63;;;;;;;1.84;100.00;100562.91;5070906;28;20198;-73
2022/02/01 03:39:22;;;;;;;0.20;0.20;;;;;;;1.85;100.00;100553.75;5071051;28;20240;-73
2022/02/01 03:41:47;;;;;;;1.37;1.23;;;;;;;1.86;100.00;100559.97;5070986;28;20186;-73
2022/02/01 03:44:13;;;;;;;0.87;0.83;;;;;;;1.91;100.00;100555.47;5070871;28;20630;-73
2022/02/01 03:46:43;;;;;;;0.63;0.47;;;;;;;1.91;100.00;100560.84;5069930;28;20206;-72
2022/02/01 03:49:09;;;;;;;0.10;0.10;;;;;;;1.91;100.00;100558.16;5070878;28;20171;-73
2022/02/01 03:51:34;;;;;;;0.00;0.00;;;;;;;1.96;100.00;100554.72;5070870;28;20428;-72
2022/02/01 03:53:59;;;;;;;1.20;0.27;;;;;;;1.94;100.00;100559.53;5070968;28;20419;-73
2022/02/01 03:56:25;;;;;;;0.10;0.10;;;;;;;1.93;100.00;100560.59;5070436;28;20174;-73
2022/02/01 03:58:50;;;;;;;0.03;0.03;;;;;;;1.93;100.00;100566.81;5070848;28;20174;-72
2022/02/01 04:01:15;;;;;;;1.70;1.17;;;;;;;1.95;100.00;100569.25;5070491;28;20177;-73
2022/02/01 04:03:40;;;;;;;1.30;1.27;;;;;;;1.98;100.00;100579.50;5070765;28;20178;-73
2022/02/01 04:06:06;;;;;;;0.43;0.00;;;;;;;1.99;100.00;100581.94;5070243;28;20284;-72
2022/02/01 04:08:31;;;;;;;5.47;1.07;;;;;;;2.00;100.00;100582.75;5070540;28;20194;-73
2022/02/01 04:10:56;;;;;;;4.53;1.33;;;;;;;2.00;100.00;100582.75;5070577;28;20202;-73
2022/02/01 04:13:22;;;;;;;0.20;0.20;;;;;;;1.96;100.00;100574.38;5070509;28;20174;-72
2022/02/01 04:15:47;;;;;;;0.40;0.40;;;;;;;1.92;100.00;100567.88;5070121;28;20483;-72
2022/02/01 04:18:13;;;;;;;31.13;1.30;;;;;;;1.87;100.00;100572.38;5070463;28;20455;-73
2022/02/01 04:20:39;;;;;;;0.77;0.73;;;;;;;1.89;100.00;100570.25;5070376;28;20178;-73
2022/02/01 04:23:04;;;;;;;2.30;2.10;;;;;;;1.89;100.00;100565.69;5070041;28;20224;-72
2022/02/01 04:25:30;;;;;;;0.90;0.90;;;;;;;1.89;100.00;100551.41;5069887;28;20701;-72
2022/02/01 04:27:55;;;;;;;0.67;0.30;;;;;;;1.86;100.00;100547.31;5070152;28;20170;-73
2022/02/01 04:30:21;;;;;;;1.60;1.30;;;;;;;1.85;100.00;100534.09;5070304;28;20528;-73
2022/02/01 04:32:52;;;;;;;2.43;2.30;;;;;;;1.84;100.00;100530.59;5070341;28;20239;-73
2022/02/01 04:35:27;;;;;;;0.00;0.00;;;;;;;1.83;100.00;100515.50;5070269;28;20178;-73
2022/02/01 04:37:54;;;;;;;0.60;0.60;;;;;;;1.82;100.00;100511.19;5070292;28;20252;-73
2022/02/01 04:40:24;;;;;;;14.60;3.57;;;;;;;1.82;100.00;100510.34;5070117;28;20425;-72
2022/02/01 04:42:51;;;;;;;9.57;2.53;;;;;;;1.79;100.00;100504.41;5070716;28;20166;-73
2022/02/01 04:45:19;;;;;;;4.20;1.23;;;;;;;1.77;100.00;100511.13;5069923;28;20429;-73
2022/02/01 04:47:46;;;;;;;14.63;0.83;;;;;;;1.75;100.00;100513.25;5070109;28;20621;-73
2022/02/01 04:50:16;;;;;;;10.57;1.07;;;;;;;1.71;100.00;100523.69;5070185;28;20432;-73
2022/02/01 04:52:44;;;;;;;9.97;0.97;;;;;;;1.69;100.00;100522.31;5070341;28;20447;-72
2022/02/01 04:55:11;;;;;;;0.50;0.50;;;;;;;1.67;100.00;100532.53;5069885;28;20440;-73
2022/02/01 04:57:44;;;;;;;0.60;0.20;;;;;;;1.66;100.00;100539.00;5068677;28;20782;-73
2022/02/01 05:00:09;;;;;;;3.40;0.47;;;;;;;1.63;100.00;100534.94;5072750;28;20182;-73
2022/02/01 05:02:35;;;;;;;14.83;0.57;;;;;;;1.65;100.00;100537.38;5074072;28;20829;-73
2022/02/01 05:05:00;;;;;;;3.93;1.33;;;;;;;1.63;100.00;100529.53;5073763;28;20213;-73
2022/02/01 05:07:25;;;;;;;0.13;0.13;;;;;;;1.61;100.00;100526.28;5072486;28;20206;-72
2022/02/01 05:09:51;;;;;;;2.97;1.40;;;;;;;1.61;100.00;100533.56;5074210;28;20264;-73
2022/02/01 05:12:18;;;;;;;4.10;0.77;;;;;;;1.62;100.00;100533.28;5073886;28;20517;-73
2022/02/01 05:14:43;;;;;;;1.43;0.93;;;;;;;1.65;100.00;100527.41;5073381;28;20167;-73
2022/02/01 05:17:09;;;;;;;1.90;1.13;;;;;;;1.68;100.00;100536.84;5073726;28;20530;-72
2022/02/01 05:22:08;;;;;;;5.00;1.23;;;;;;;1.65;100.00;100554.34;5073932;28;20179;-73
2022/02/01 05:24:37;;;;;;;1.80;0.97;;;;;;;1.63;100.00;100539.50;5073424;28;20467;-73
2022/02/01 05:27:04;;;;;;;8.97;0.50;;;;;;;1.60;100.00;100529.22;5073279;28;20955;-72
2022/02/01 05:29:29;;;;;;;0.93;0.77;;;;;;;1.56;100.00;100518.13;5073596;28;20432;-73
2022/02/01 05:31:58;;;;;;;2.73;2.53;;;;;;;1.55;100.00;100521.06;5073450;28;20421;-73
2022/02/01 05:34:23;;;;;;;0.17;0.17;;;;;;;1.54;100.00;100536.41;5073159;28;20171;-73
2022/02/01 05:36:49;;;;;;;1.80;0.20;;;;;;;1.50;100.00;100532.59;5073397;28;20228;-73
2022/02/01 05:39:20;;;;;;;10.80;1.27;;;;;;;1.49;100.00;100536.34;5073226;28;20702;-73
2022/02/01 05:41:46;;;;;;;1.73;1.63;;;;;;;1.49;100.00;100544.44;5073318;28;20262;-73
2022/02/01 05:44:12;;;;;;;5.80;0.73;;;;;;;1.46;100.00;100548.44;5072972;28;20500;-73
2022/02/01 05:46:39;;;;;;;8.50;0.83;;;;;;;1.47;100.00;100539.28;5073138;28;20213;-73
2022/02/01 05:49:05;;;;;;;12.93;2.27;;;;;;;1.47;100.00;100546.56;5073251;28;20460;-73
2022/02/01 05:51:31;;;;;;;4.80;1.90;;;;;;;1.49;100.00;100544.44;5073576;28;20428;-73
2022/02/01 05:53:57;;;;;;;0.50;0.47;;;;;;;1.51;100.00;100560.31;5073130;28;20182;-73
2022/02/01 05:56:22;;;;;;;2.33;0.57;;;;;;;1.44;100.00;100572.06;5072888;28;20261;-73
2022/02/01 05:58:48;;;;;;;9.70;3.47;;;;;;;1.41;100.00;100566.38;5072928;28;20174;-72
2022/02/01 06:01:14;;;;;;;0.50;0.50;;;;;;;1.40;100.00;100564.75;5072854;28;20171;-73
2022/02/01 06:03:39;;;;;;;0.40;0.40;;;;;;;1.38;100.00;100559.63;5072949;28;20166;-73
2022/02/01 06:06:05;;;;;;;2.00;0.57;;;;;;;1.39;100.00;100553.16;5072513;28;20528;-73
2022/02/01 06:08:30;;;;;;;16.63;1.03;;;;;;;1.39;100.00;100531.63;5072801;28;20179;-72
2022/02/01 06:10:56;;;;;;;0.77;0.60;;;;;;;1.42;100.00;100531.13;5071918;28;20198;-73
2022/02/01 06:13:21;;;;;;;0.53;0.53;;;;;;;1.42;100.00;100539.22;5072903;28;20175;-72
2022/02/01 06:15:46;;;;;;;2.83;2.37;;;;;;;1.46;100.00;100540.38;5072718;28;20178;-72
2022/02/01 06:18:12;;;;;;;13.00;2.70;;;;;;;1.48;100.00;100537.41;5072656;28;20170;-72
2022/02/01 06:20:37;;;;;;;4.50;1.83;;;;;;;1.48;100.00;100526.66;5072744;28;20197;-72
2022/02/01 06:23:11;;;;;;;0.77;0.40;;;;;;;1.50;100.00;100540.66;5072623;28;20262;-73
2022/02/01 06:25:50;;;;;;;5.87;1.27;;;;;;;1.52;100.00;100552.00;5071988;28;20213;-72
2022/02/01 06:28:17;;;;;;;2.63;2.43;;;;;;;1.53;100.00;100533.97;5071575;28;20228;-73
2022/02/01 06:30:42;;;;;;;7.60;1.00;;;;;;;1.53;100.00;100518.63;5072143;28;20892;-73
2022/02/01 06:33:09;;;;;;;11.13;1.53;;;;;;;1.54;100.00;100511.38;5072336;28;20471;-73
2022/02/01 06:35:34;;;;;;;1.73;0.40;;;;;;;1.56;100.00;100509.22;5071859;28;20178;-73
2022/02/01 06:38:00;;;;;;;11.17;0.77;;;;;;;1.54;100.00;100509.47;5072017;28;20252;-73
2022/02/01 06:40:25;;;;;;;4.17;1.03;;;;;;;1.57;100.00;100508.97;5072236;28;20182;-75
2022/02/01 06:42:51;;;;;;;1.00;0.90;;;;;;;1.58;100.00;100515.19;5072270;28;20257;-72
2022/02/01 06:45:16;;;;;;;4.23;1.00;;;;;;;1.59;100.00;100527.56;5071958;28;20696;-73
2022/02/01 06:47:41;;;;;;;13.97;1.50;;;;;;;1.64;100.00;100535.72;5072026;28;20263;-73
2022/02/01 06:50:07;;;;;;;2.30;1.37;;;;;;;1.68;100.00;100532.28;5072113;28;20171;-72
2022/02/01 06:52:33;;;;;;;0.80;0.80;;;;;;;1.73;100.00;100542.28;5071915;28;20593;-73
2022/02/01 06:55:02;;;;;;;2.93;1.23;;;;;;;1.75;100.00;100546.38;5071573;28;20641;-73
2022/02/01 06:57:27;;;;;;;1.30;1.20;;;;;;;1.77;100.00;100541.56;5071857;28;20561;-72
2022/02/01 06:59:52;;;;;;;0.07;0.07;;;;;;;1.77;100.00;100546.94;5071948;28;20213;-72
2022/02/01 07:02:18;;;;;;;10.67;0.87;;;;;;;1.79;100.00;100541.31;5071894;28;20667;-72
2022/02/01 07:04:43;;;;;;;16.87;0.77;;;;;;;1.82;100.00;100550.75;5071377;28;20175;-73
2022/02/01 07:07:09;;;;;;;5.20;1.37;;;;;;;1.84;100.00;100545.94;5071391;28;20688;-73
2022/02/01 07:09:35;;;;;;;22.67;1.07;;;;;;;1.87;100.00;100540.03;5071449;28;20240;-72
2022/02/01 07:12:01;;;;;;;1.40;1.13;;;;;;;1.90;100.00;100553.84;5071508;28;20171;-72
2022/02/01 07:14:27;;;;;;;11.07;0.87;;;;;;;1.93;100.00;100544.44;5071252;28;20234;-73
2022/02/01 07:16:52;;;;;;;0.97;0.83;;;;;;;1.95;100.00;100543.13;5067625;28;20236;-72
2022/02/01 07:19:17;;;;;;;6.63;0.83;;;;;;;1.96;100.00;100536.66;5060652;28;20193;-74
2022/02/01 07:21:42;;;;;;;3.53;1.20;;;;;;;1.97;100.00;100524.81;5071945;28;20197;-73
2022/02/01 07:24:15;;;;;;;7.33;2.07;;;;;;;1.99;100.00;100519.16;5071927;28;20174;-73
2022/02/01 07:26:42;;;;;;;6.63;1.43;;;;;;;1.99;100.00;100517.28;5071672;28;20240;-72
2022/02/01 07:29:07;;;;;;;0.10;0.10;;;;;;;2.01;100.00;100522.41;5071946;28;20292;-74
2022/02/01 07:31:32;;;;;;;0.87;0.87;;;;;;;2.03;100.00;100509.53;5072064;28;20178;-73
2022/02/01 07:33:58;;;;;;;0.90;0.83;;;;;;;2.08;100.00;100512.28;5071758;28;20166;-74
2022/02/01 07:36:23;;;;;;;6.63;1.23;;;;;;;2.11;100.00;100519.84;5070264;28;20755;-73
2022/02/01 07:38:48;;;;;;;0.33;0.20;;;;;;;2.12;100.00;100513.38;5071703;28;20174;-73
2022/02/01 07:41:14;;;;;;;5.87;1.73;;;;;;;2.15;100.00;100522.84;5071792;28;20174;-72
2022/02/01 07:43:40;;;;;;;3.57;2.00;;;;;;;2.16;100.00;100519.06;5071587;28;20174;-73
2022/02/01 07:46:07;;;;;;;0.33;0.33;;;;;;;2.18;100.00;100523.16;5071491;28;20203;-73
2022/02/01 07:48:32;;;;;;;6.73;1.30;;;;;;;2.21;100.00;100500.28;5071394;28;20273;-73
2022/02/01 07:50:58;;;;;;;2.03;0.87;;;;;;;2.20;100.00;100486.00;5071433;28;20300;-73
2022/02/01 07:53:23;;;;;;;0.40;0.40;;;;;;;2.23;100.00;100490.88;5071262;28;20180;-75
2022/02/01 07:55:49;;;;;;;1.60;1.27;;;;;;;2.24;100.00;100476.31;5071086;28;20174;-73
2022/02/01 07:58:14;;;;;;;1.03;0.67;;;;;;;2.26;100.00;100474.19;5071291;28;20162;-70
2022/02/01 08:00:39;;;;;;;1.40;1.20;;;;;;;2.27;100.00;100473.09;5071273;28;20610;-74
2022/02/01 08:03:05;;;;;;;2.87;1.37;;;;;;;2.30;100.00;100482.56;5071286;28;20170;-73
2022/02/01 08:05:32;;;;;;;3.00;1.37;;;;;;;2.36;100.00;100493.16;5071041;28;20571;-72
2022/02/01 08:08:00;;;;;;;0.77;0.60;;;;;;;2.37;100.00;100492.09;5071090;28;20555;-73
2022/02/01 08:10:29;;;;;;;0.77;0.77;;;;;;;2.39;100.00;100483.72;5071164;28;20174;-71
2022/02/01 08:18:05;;;;;;;6.40;0.97;;;;;;;2.44;100.00;100445.22;5071341;28;20171;-72
2022/02/01 08:20:36;;;;;;;4.60;1.37;;;;;;;2.46;100.00;100426.88;5071062;28;20273;-72
2022/02/01 08:23:02;;;;;;;2.00;1.07;;;;;;;2.45;100.00;100417.19;5070932;28;20545;-72
2022/02/01 08:25:32;;;;;;;6.77;0.93;;;;;;;2.47;100.00;100423.97;5070606;28;20194;-73
2022/02/01 08:28:00;;;;;;;2.30;1.63;;;;;;;2.47;100.00;100409.66;5070837;28;20194;-72
2022/02/01 08:30:26;;;;;;;1.33;1.30;;;;;;;2.49;100.00;100412.91;5070902;28;20166;-73
2022/02/01 08:32:51;;;;;;;3.43;1.13;;;;;;;2.52;100.00;100410.50;5070279;28;20969;-73
2022/02/01 08:35:17;;;;;;;6.03;2.63;;;;;;;2.54;100.00;100399.47;5067308;28;20210;-74
2022/02/01 08:37:42;;;;;;;0.97;0.70;;;;;;;2.55;100.00;100401.09;5067921;28;20248;-74
2022/02/01 08:40:09;;;;;;;9.57;1.47;;;;;;;2.55;100.00;100390.28;5070815;28;20221;-75
2022/02/01 08:42:35;;;;;;;1.43;1.33;;;;;;;2.56;100.00;100387.34;5070743;28;20284;-73
2022/02/01 08:45:02;;;;;;;9.17;3.43;;;;;;;2.55;100.00;100396.50;5071144;28;20686;-75
2022/02/01 08:47:28;;;;;;;1.63;1.53;;;;;;;2.57;100.00;100391.66;5070630;28;20710;-73
2022/02/01 08:49:53;;;;;;;13.10;1.40;;;;;;;2.59;100.00;100372.50;5070779;28;20178;-74
2022/02/01 08:52:33;;;;;;;8.60;1.53;;;;;;;2.59;100.00;100364.41;5070742;28;20685;-74
2022/02/01 08:55:01;;;;;;;0.80;0.80;;;;;;;2.61;100.00;100349.63;5070327;28;20174;-75
2022/02/01 08:57:28;;;;;;;1.37;1.27;;;;;;;2.67;100.00;100350.47;5070602;28;20170;-74
2022/02/01 09:00:04;;;;;;;0.70;0.70;;;;;;;2.71;100.00;100345.34;5070677;28;20226;-74
2022/02/01 09:02:30;;;;;;;14.53;2.17;;;;;;;2.73;100.00;100340.50;5070708;28;20163;-73
2022/02/01 09:04:56;;;;;;;4.73;1.87;;;;;;;2.77;100.00;100341.63;5069922;28;20174;-72
2022/02/01 09:07:21;;;;;;;0.77;0.77;;;;;;;2.80;100.00;100328.41;5070179;28;20680;-73
2022/02/01 09:09:47;;;;;;;5.00;0.30;;;;;;;2.83;100.00;100317.09;5070237;28;20221;-72
2022/02/01 09:12:14;;;;;;;0.20;0.20;;;;;;;2.89;100.00;100315.22;5071392;28;20179;-72
2022/02/01 09:14:39;;;;;;;1.60;0.83;;;;;;;2.90;100.00;100301.50;5071859;28;20629;-72
2022/02/01 09:17:06;;;;;;;5.00;0.30;;;;;;;2.90;100.00;100295.28;5070787;28;20190;-72
2022/02/01 09:19:32;;;;;;;1.23;1.10;;;;;;;2.92;100.00;100298.53;5070387;28;20181;-73
2022/02/01 09:21:59;;;;;;;3.70;1.30;;;;;;;2.98;99.37;100287.47;5070217;28;20170;-72
2022/02/01 09:24:25;;;;;;;9.10;1.17;;;;;;;3.05;98.78;100289.94;5070063;28;20185;-72
2022/02/01 09:26:51;;;;;;;0.80;0.80;;;;;;;3.10;97.95;100273.75;5069766;28;20207;-72
2022/02/01 09:29:19;;;;;;;1.57;1.47;;;;;;;3.15;97.28;100268.34;5070610;28;20178;-72
2022/02/01 09:31:45;;;;;;;0.87;0.77;;;;;;;3.20;96.62;100267.56;5070203;28;20179;-72
2022/02/01 09:34:10;;;;;;;2.50;1.30;;;;;;;3.20;95.63;100270.28;5070459;28;20178;-72
2022/02/01 09:36:35;;;;;;;0.40;0.40;;;;;;;3.24;96.00;100268.66;5070118;28;20170;-72
2022/02/01 09:39:01;;;;;;;0.43;0.43;;;;;;;3.26;95.87;100259.19;5070260;28;20265;-72
2022/02/01 09:41:32;;;;;;;2.27;0.57;;;;;;;3.24;95.55;100249.75;5067151;28;20186;-72
2022/02/01 09:43:57;;;;;;;3.10;1.13;;;;;;;3.27;95.41;100249.22;5069629;28;20622;-72
2022/02/01 09:46:23;;;;;;;12.50;1.57;;;;;;;3.27;94.77;100233.00;5072287;28;20205;-72
2022/02/01 09:48:48;;;;;;;1.60;1.30;;;;;;;3.26;94.80;100239.50;5073691;28;20179;-72
2022/02/01 09:51:14;;;;;;;1.57;1.47;;;;;;;3.30;94.11;100232.47;5073698;28;20179;-73
2022/02/01 09:53:40;;;;;;;23.33;2.47;;;;;;;3.33;94.07;100206.81;5073521;28;20175;-72
2022/02/01 09:56:06;;;;;;;0.30;0.30;;;;;;;3.34;93.54;100195.78;5073185;28;20763;-72
2022/02/01 09:58:34;;;;;;;0.97;0.90;;;;;;;3.38;92.26;100204.13;5073530;28;20186;-72
2022/02/01 10:01:02;;;;;;;3.70;2.40;;;;;;;3.40;92.35;100191.19;5073502;28;20174;-72
2022/02/01 10:03:28;;;;;;;5.53;1.87;;;;;;;3.41;92.32;100192.78;5073441;28;20182;-73
2022/02/01 10:06:04;;;;;;;8.70;0.87;;;;;;;3.41;92.28;100182.00;5073051;28;20180;-73
2022/02/01 10:08:29;;;;;;;1.40;1.30;;;;;;;3.44;91.64;100174.16;5073001;28;20182;-72
2022/02/01 10:10:55;;;;;;;2.97;1.13;;;;;;;3.45;91.30;100173.06;5073197;28;20183;-72
2022/02/01 10:13:21;;;;;;;0.87;0.83;;;;;;;3.45;91.28;100153.34;5073226;28;20178;-73
2022/02/01 10:15:59;;;;;;;2.30;2.13;;;;;;;3.45;91.75;100127.16;5072765;28;20167;-73
2022/02/01 10:18:33;;;;;;;10.90;2.90;;;;;;;3.46;91.77;100130.69;5072839;28;20478;-73
2022/02/01 10:21:06;;;;;;;2.20;1.77;;;;;;;3.49;92.16;100130.97;5072453;28;20257;-73
2022/02/01 10:23:33;;;;;;;2.00;1.37;;;;;;;3.49;92.78;100117.47;5072373;28;20189;-73
2022/02/01 10:26:01;;;;;;;0.43;0.43;;;;;;;3.46;92.79;100115.28;5072273;28;20213;-72
2022/02/01 10:28:35;;;;;;;1.80;1.70;;;;;;;3.46;93.72;100093.69;5072257;28;20171;-73
2022/02/01 10:31:11;;;;;;;1.13;1.13;;;;;;;3.42;94.13;100081.00;5072514;28;20319;-72
2022/02/01 10:36:18;;;;;;;1.30;1.13;;;;;;;3.36;96.38;100071.31;5072190;28;20162;-73
2022/02/01 10:38:44;;;;;;;1.80;1.20;;;;;;;3.35;97.54;100061.59;5072379;28;20167;-73
2022/02/01 10:41:14;;;;;;;1.27;0.97;;;;;;;3.33;97.94;100056.47;5072284;28;20163;-73
2022/02/01 10:43:41;;;;;;;2.30;1.90;;;;;;;3.31;98.99;100028.91;5072170;28;20630;-73
2022/02/01 10:46:13;;;;;;;2.47;2.27;;;;;;;3.33;99.52;100034.03;5071622;28;20190;-72
2022/02/01 10:48:45;;;;;;;2.10;1.77;;;;;;;3.29;99.51;100023.78;5072225;28;20171;-72
2022/02/01 10:51:22;;;;;;;1.67;1.57;;;;;;;3.35;100.00;100030.00;5072434;28;20177;-74
2022/02/01 10:53:49;;;;;;;0.60;0.60;;;;;;;3.33;100.00;100017.84;5071932;28;20305;-74
2022/02/01 10:56:16;;;;;;;10.27;1.87;;;;;;;3.28;100.00;100010.56;5071357;28;20167;-72
2022/02/01 10:58:43;;;;;;;1.50;1.27;;;;;;;3.22;100.00;100001.69;5071829;28;20533;-71
2022/02/01 11:01:11;;;;;;;1.93;1.53;;;;;;;3.16;100.00;100010.03;5071779;28;20162;-72
2022/02/01 11:03:43;;;;;;;5.03;1.20;;;;;;;3.13;100.00;100005.19;5071329;28;20171;-72
2022/02/01 11:06:09;;;;;;;0.77;0.77;;;;;;;3.09;100.00;99996.03;5071399;28;20210;-72
2022/02/01 11:08:39;;;;;;;1.63;1.57;;;;;;;3.10;100.00;99989.56;5071647;28;20228;-73
2022/02/01 11:11:05;;;;;;;2.43;2.30;;;;;;;3.07;100.00;99977.44;5071546;28;20167;-72
2022/02/01 11:13:44;;;;;;;2.60;2.40;;;;;;;3.05;100.00;99970.69;5071629;28;20718;-72
2022/02/01 11:16:13;;;;;;;5.80;2.60;;;;;;;3.04;100.00;99947.47;5071236;28;20706;-72
2022/02/01 11:18:39;;;;;;;1.33;0.70;;;;;;;3.01;100.00;99948.81;5071409;28;20171;-72
2022/02/01 11:21:14;;;;;;;0.77;0.77;;;;;;;2.99;100.00;99943.69;5071519;28;20178;-74
2022/02/01 11:26:24;;;;;;;2.20;2.03;;;;;;;2.92;100.00;99927.00;5070798;28;20206;-72
2022/02/01 11:31:50;;;;;;;0.40;0.40;;;;;;;2.90;100.00;99902.19;5071268;28;20436;-72
2022/02/01 11:34:24;;;;;;;1.70;1.60;;;;;;;2.92;100.00;99904.59;5071788;28;20529;-74
2022/02/01 11:36:56;;;;;;;1.17;1.17;;;;;;;2.91;100.00;99893.00;5070875;28;20248;-72
2022/02/01 11:39:22;;;;;;;1.77;1.67;;;;;;;2.89;100.00;99884.38;5071324;28;20167;-74
2022/02/01 11:41:47;;;;;;;0.53;0.53;;;;;;;2.92;100.00;99877.63;5071208;28;20649;-76
2022/02/01 11:44:13;;;;;;;2.00;1.90;;;;;;;2.92;100.00;99864.94;5070981;28;20207;-75
2022/02/01 11:46:47;;;;;;;0.60;0.60;;;;;;;2.93;100.00;99858.47;5070708;28;20199;-72
2022/02/01 11:49:22;;;;;;;1.40;1.30;;;;;;;2.95;100.00;99848.19;5070790;28;20613;-73
2022/02/01 11:51:48;;;;;;;1.20;1.20;;;;;;;2.98;100.00;99866.53;5071371;28;20162;-73
2022/02/01 11:54:14;;;;;;;1.27;1.20;;;;;;;3.02;100.00;99855.19;5070953;28;20512;-72
2022/02/01 11:56:41;;;;;;;4.27;0.87;;;;;;;3.02;100.00;99842.50;5070557;28;20166;-74
2022/02/01 11:59:07;;;;;;;0.50;0.50;;;;;;;3.05;100.00;99833.88;5070853;28;20170;-72
2022/02/01 12:01:38;;;;;;;1.00;1.00;;;;;;;3.10;100.00;99822.25;5070676;28;20170;-72
2022/02/01 12:04:05;;;;;;;0.37;0.37;;;;;;;3.12;100.00;99806.56;5070852;28;20216;-72
2022/02/01 12:06:46;;;;;;;0.47;0.47;;;;;;;3.16;100.00;99803.03;5070184;28;20202;-75
2022/02/01 12:09:22;;;;;;;0.20;0.20;;;;;;;3.20;100.00;99789.81;5069846;28;20166;-72
2022/02/01 12:11:54;;;;;;;0.40;0.40;;;;;;;3.21;100.00;99800.31;5070907;28;20192;-74
2022/02/01 12:14:20;;;;;;;1.27;1.17;;;;;;;3.26;100.00;99770.59;5070826;28;20204;-73
2022/02/01 12:16:49;;;;;;;1.30;1.20;;;;;;;3.29;100.00;99764.63;5070438;28;20527;-72
2022/02/01 12:19:44;;;;;;;0.40;0.40;;;;;;;3.32;100.00;99757.84;5070506;28;20257;-73
2022/02/01 12:22:39;;;;;;;1.77;0.97;;;;;;;3.37;100.00;99763.25;5066557;28;20183;-72
2022/02/01 12:25:10;;;;;;;0.80;0.73;;;;;;;3.40;100.00;99748.38;5070180;28;20178;-73
2022/02/01 12:27:37;;;;;;;1.33;1.00;;;;;;;3.42;100.00;99768.59;5070377;28;20202;-73
2022/02/01 12:30:06;;;;;;;2.80;0.60;;;;;;;3.45;100.00;99732.94;5069969;28;20222;-73
2022/02/01 12:32:33;;;;;;;0.70;0.70;;;;;;;3.49;100.00;99720.50;5070426;28;20244;-72
2022/02/01 12:34:58;;;;;;;0.77;0.77;;;;;;;3.52;100.00;99697.53;5070019;28;20170;-73
2022/02/01 12:37:24;;;;;;;0.37;0.37;;;;;;;3.54;100.00;99679.13;5055131;28;20191;-73
2022/02/01 12:40:10;;;;;;;0.20;0.20;;;;;;;3.56;100.00;99663.44;5068153;28;20534;-72
2022/02/01 12:42:49;;;;;;;0.20;0.20;;;;;;;3.59;100.00;99663.69;5067858;28;20178;-74
2022/02/01 12:48:00;;;;;;;1.13;0.97;;;;;;;3.71;100.00;99652.50;5070438;28;20620;-72